sensor_id;sensor_type;location;lat;lon;timestamp;P1;durP1;ratioP1;P2;durP2;ratioP2
21305;SDS011;10812;51.838;5.838;2023-07-13T00:01:08;3.93;;;1.40;;
21305;SDS011;10812;51.838;5.838;2023-07-13T00:03:37;4.77;;;1.53;;
21305;SDS011;10812;51.838;5.838;2023-07-13T00:06:09;5.47;;;2.13;;
21305;SDS011;10812;51.838;5.838;2023-07-13T00:08:37;2.97;;;1.70;;
21305;SDS011;10812;51.838;5.838;2023-07-13T00:11:06;3.83;;;1.43;;
21305;SDS011;10812;51.838;5.838;2023-07-13T00:13:34;5.53;;;1.70;;
21305;SDS011;10812;51.838;5.838;2023-07-13T00:16:04;5.13;;;1.70;;
21305;SDS011;10812;51.838;5.838;2023-07-13T00:18:33;5.87;;;1.73;;
21305;SDS011;10812;51.838;5.838;2023-07-13T00:21:01;3.43;;;1.60;;
21305;SDS011;10812;51.838;5.838;2023-07-13T00:23:33;3.17;;;1.60;;
21305;SDS011;10812;51.838;5.838;2023-07-13T00:26:03;3.97;;;1.30;;
21305;SDS011;10812;51.838;5.838;2023-07-13T00:28:32;4.70;;;1.57;;
21305;SDS011;10812;51.838;5.838;2023-07-13T00:31:01;3.83;;;1.43;;
21305;SDS011;10812;51.838;5.838;2023-07-13T00:33:32;4.90;;;1.83;;
21305;SDS011;10812;51.838;5.838;2023-07-13T00:36:00;4.33;;;1.50;;
21305;SDS011;10812;51.838;5.838;2023-07-13T00:38:29;4.03;;;1.53;;
21305;SDS011;10812;51.838;5.838;2023-07-13T00:40:59;4.77;;;1.57;;
21305;SDS011;10812;51.838;5.838;2023-07-13T00:43:27;7.07;;;2.00;;
21305;SDS011;10812;51.838;5.838;2023-07-13T00:46:13;4.20;;;2.03;;
21305;SDS011;10812;51.838;5.838;2023-07-13T00:48:44;5.60;;;1.77;;
21305;SDS011;10812;51.838;5.838;2023-07-13T00:51:16;5.20;;;1.60;;
21305;SDS011;10812;51.838;5.838;2023-07-13T00:53:47;5.60;;;2.13;;
21305;SDS011;10812;51.838;5.838;2023-07-13T00:56:17;3.23;;;1.77;;
21305;SDS011;10812;51.838;5.838;2023-07-13T00:58:45;5.30;;;2.30;;
21305;SDS011;10812;51.838;5.838;2023-07-13T01:01:13;2.40;;;1.43;;
21305;SDS011;10812;51.838;5.838;2023-07-13T01:03:42;5.17;;;1.60;;
21305;SDS011;10812;51.838;5.838;2023-07-13T01:06:10;6.00;;;1.70;;
21305;SDS011;10812;51.838;5.838;2023-07-13T01:11:46;3.73;;;1.70;;
21305;SDS011;10812;51.838;5.838;2023-07-13T01:14:15;4.63;;;1.70;;
21305;SDS011;10812;51.838;5.838;2023-07-13T01:16:44;4.87;;;1.53;;
21305;SDS011;10812;51.838;5.838;2023-07-13T01:19:18;6.63;;;1.77;;
21305;SDS011;10812;51.838;5.838;2023-07-13T01:21:57;5.33;;;1.90;;
21305;SDS011;10812;51.838;5.838;2023-07-13T01:24:25;3.13;;;1.80;;
21305;SDS011;10812;51.838;5.838;2023-07-13T01:26:53;4.70;;;1.90;;
21305;SDS011;10812;51.838;5.838;2023-07-13T01:29:22;8.40;;;2.33;;
21305;SDS011;10812;51.838;5.838;2023-07-13T01:31:50;3.90;;;1.70;;
21305;SDS011;10812;51.838;5.838;2023-07-13T01:34:18;3.83;;;1.97;;
21305;SDS011;10812;51.838;5.838;2023-07-13T01:36:46;5.43;;;2.10;;
21305;SDS011;10812;51.838;5.838;2023-07-13T01:39:16;5.40;;;1.90;;
21305;SDS011;10812;51.838;5.838;2023-07-13T01:41:44;6.90;;;2.30;;
21305;SDS011;10812;51.838;5.838;2023-07-13T01:44:12;3.30;;;1.83;;
21305;SDS011;10812;51.838;5.838;2023-07-13T01:46:40;7.57;;;2.10;;
21305;SDS011;10812;51.838;5.838;2023-07-13T01:49:08;5.17;;;2.40;;
21305;SDS011;10812;51.838;5.838;2023-07-13T01:51:36;7.63;;;2.17;;
21305;SDS011;10812;51.838;5.838;2023-07-13T01:54:05;4.93;;;1.90;;
21305;SDS011;10812;51.838;5.838;2023-07-13T01:56:34;4.27;;;1.93;;
21305;SDS011;10812;51.838;5.838;2023-07-13T01:59:02;4.60;;;1.83;;
21305;SDS011;10812;51.838;5.838;2023-07-13T02:01:31;6.83;;;2.70;;
21305;SDS011;10812;51.838;5.838;2023-07-13T02:03:59;5.10;;;1.63;;
21305;SDS011;10812;51.838;5.838;2023-07-13T02:06:27;3.73;;;2.00;;
21305;SDS011;10812;51.838;5.838;2023-07-13T02:08:55;6.07;;;2.27;;
21305;SDS011;10812;51.838;5.838;2023-07-13T02:11:25;4.93;;;2.50;;
21305;SDS011;10812;51.838;5.838;2023-07-13T02:14:00;6.23;;;2.23;;
21305;SDS011;10812;51.838;5.838;2023-07-13T02:16:28;5.80;;;1.97;;
21305;SDS011;10812;51.838;5.838;2023-07-13T02:18:57;4.07;;;2.20;;
21305;SDS011;10812;51.838;5.838;2023-07-13T02:21:27;3.57;;;1.80;;
21305;SDS011;10812;51.838;5.838;2023-07-13T02:23:55;6.43;;;2.90;;
21305;SDS011;10812;51.838;5.838;2023-07-13T02:26:24;6.80;;;2.13;;
21305;SDS011;10812;51.838;5.838;2023-07-13T02:28:52;3.90;;;2.00;;
21305;SDS011;10812;51.838;5.838;2023-07-13T02:31:22;5.83;;;2.10;;
21305;SDS011;10812;51.838;5.838;2023-07-13T02:33:50;6.13;;;2.30;;
21305;SDS011;10812;51.838;5.838;2023-07-13T02:36:18;5.07;;;2.00;;
21305;SDS011;10812;51.838;5.838;2023-07-13T02:38:46;5.83;;;2.03;;
21305;SDS011;10812;51.838;5.838;2023-07-13T02:41:16;5.93;;;2.63;;
21305;SDS011;10812;51.838;5.838;2023-07-13T02:43:44;4.97;;;2.30;;
21305;SDS011;10812;51.838;5.838;2023-07-13T02:46:13;6.10;;;2.30;;
21305;SDS011;10812;51.838;5.838;2023-07-13T02:48:42;7.27;;;2.30;;
21305;SDS011;10812;51.838;5.838;2023-07-13T02:51:11;6.57;;;2.23;;
21305;SDS011;10812;51.838;5.838;2023-07-13T02:53:39;5.90;;;2.50;;
21305;SDS011;10812;51.838;5.838;2023-07-13T02:56:07;5.27;;;2.43;;
21305;SDS011;10812;51.838;5.838;2023-07-13T02:58:36;4.83;;;2.67;;
21305;SDS011;10812;51.838;5.838;2023-07-13T03:06:23;6.30;;;2.53;;
21305;SDS011;10812;51.838;5.838;2023-07-13T03:08:51;7.13;;;3.17;;
21305;SDS011;10812;51.838;5.838;2023-07-13T03:11:20;7.37;;;2.33;;
21305;SDS011;10812;51.838;5.838;2023-07-13T03:13:49;6.37;;;2.70;;
21305;SDS011;10812;51.838;5.838;2023-07-13T03:16:17;6.30;;;2.70;;
21305;SDS011;10812;51.838;5.838;2023-07-13T03:18:46;5.23;;;2.67;;
21305;SDS011;10812;51.838;5.838;2023-07-13T03:21:15;5.73;;;2.20;;
21305;SDS011;10812;51.838;5.838;2023-07-13T03:23:44;8.67;;;2.53;;
21305;SDS011;10812;51.838;5.838;2023-07-13T03:26:14;4.17;;;2.43;;
21305;SDS011;10812;51.838;5.838;2023-07-13T03:28:44;7.63;;;2.57;;
21305;SDS011;10812;51.838;5.838;2023-07-13T03:31:14;6.50;;;2.30;;
21305;SDS011;10812;51.838;5.838;2023-07-13T03:33:44;6.43;;;2.57;;
21305;SDS011;10812;51.838;5.838;2023-07-13T03:36:14;8.20;;;2.63;;
21305;SDS011;10812;51.838;5.838;2023-07-13T03:38:47;5.33;;;2.80;;
21305;SDS011;10812;51.838;5.838;2023-07-13T03:41:16;8.50;;;3.30;;
21305;SDS011;10812;51.838;5.838;2023-07-13T03:43:44;7.00;;;2.90;;
21305;SDS011;10812;51.838;5.838;2023-07-13T03:46:14;5.17;;;2.50;;
21305;SDS011;10812;51.838;5.838;2023-07-13T03:48:43;4.83;;;2.50;;
21305;SDS011;10812;51.838;5.838;2023-07-13T03:51:13;9.03;;;4.13;;
21305;SDS011;10812;51.838;5.838;2023-07-13T03:53:43;9.83;;;3.50;;
21305;SDS011;10812;51.838;5.838;2023-07-13T03:56:14;9.40;;;3.10;;
21305;SDS011;10812;51.838;5.838;2023-07-13T03:58:45;8.97;;;4.17;;
21305;SDS011;10812;51.838;5.838;2023-07-13T04:01:15;14.27;;;3.73;;
21305;SDS011;10812;51.838;5.838;2023-07-13T04:03:44;5.47;;;2.80;;
21305;SDS011;10812;51.838;5.838;2023-07-13T04:06:15;9.03;;;3.33;;
21305;SDS011;10812;51.838;5.838;2023-07-13T04:08:48;7.97;;;3.53;;
21305;SDS011;10812;51.838;5.838;2023-07-13T04:11:19;9.00;;;3.13;;
21305;SDS011;10812;51.838;5.838;2023-07-13T04:13:48;6.50;;;3.10;;
21305;SDS011;10812;51.838;5.838;2023-07-13T04:16:17;8.47;;;3.20;;
21305;SDS011;10812;51.838;5.838;2023-07-13T04:18:46;7.93;;;3.10;;
21305;SDS011;10812;51.838;5.838;2023-07-13T04:21:16;5.80;;;3.07;;
21305;SDS011;10812;51.838;5.838;2023-07-13T04:23:50;8.93;;;3.40;;
21305;SDS011;10812;51.838;5.838;2023-07-13T04:26:20;8.43;;;3.07;;
21305;SDS011;10812;51.838;5.838;2023-07-13T04:36:18;8.70;;;3.43;;
21305;SDS011;10812;51.838;5.838;2023-07-13T04:38:46;8.10;;;3.23;;
21305;SDS011;10812;51.838;5.838;2023-07-13T04:41:15;8.30;;;3.77;;
21305;SDS011;10812;51.838;5.838;2023-07-13T04:43:44;6.93;;;3.00;;
21305;SDS011;10812;51.838;5.838;2023-07-13T04:46:13;10.30;;;3.43;;
21305;SDS011;10812;51.838;5.838;2023-07-13T04:48:44;7.27;;;3.30;;
21305;SDS011;10812;51.838;5.838;2023-07-13T04:51:12;4.73;;;2.87;;
21305;SDS011;10812;51.838;5.838;2023-07-13T04:53:41;6.33;;;3.60;;
21305;SDS011;10812;51.838;5.838;2023-07-13T04:56:09;7.27;;;3.60;;
21305;SDS011;10812;51.838;5.838;2023-07-13T04:58:38;8.10;;;3.47;;
21305;SDS011;10812;51.838;5.838;2023-07-13T05:01:09;9.40;;;3.50;;
21305;SDS011;10812;51.838;5.838;2023-07-13T05:07:26;7.27;;;2.83;;
21305;SDS011;10812;51.838;5.838;2023-07-13T05:17:23;8.73;;;4.07;;
21305;SDS011;10812;51.838;5.838;2023-07-13T05:19:51;9.80;;;4.13;;
21305;SDS011;10812;51.838;5.838;2023-07-13T05:22:20;9.20;;;3.50;;
21305;SDS011;10812;51.838;5.838;2023-07-13T05:24:48;11.10;;;4.10;;
21305;SDS011;10812;51.838;5.838;2023-07-13T05:27:16;6.80;;;3.47;;
21305;SDS011;10812;51.838;5.838;2023-07-13T05:29:44;10.00;;;3.97;;
21305;SDS011;10812;51.838;5.838;2023-07-13T05:32:13;9.80;;;4.03;;
21305;SDS011;10812;51.838;5.838;2023-07-13T05:34:43;13.10;;;5.13;;
21305;SDS011;10812;51.838;5.838;2023-07-13T05:37:11;8.82;;;4.57;;
21305;SDS011;10812;51.838;5.838;2023-07-13T05:39:39;10.57;;;4.95;;
21305;SDS011;10812;51.838;5.838;2023-07-13T05:42:08;13.55;;;5.43;;
21305;SDS011;10812;51.838;5.838;2023-07-13T05:44:39;11.70;;;5.18;;
21305;SDS011;10812;51.838;5.838;2023-07-13T05:47:07;11.30;;;5.43;;
21305;SDS011;10812;51.838;5.838;2023-07-13T05:49:36;14.20;;;5.80;;
21305;SDS011;10812;51.838;5.838;2023-07-13T05:52:06;10.65;;;5.88;;
21305;SDS011;10812;51.838;5.838;2023-07-13T05:54:35;14.98;;;6.32;;
21305;SDS011;10812;51.838;5.838;2023-07-13T05:57:06;12.90;;;5.97;;
21305;SDS011;10812;51.838;5.838;2023-07-13T05:59:48;12.88;;;5.75;;
21305;SDS011;10812;51.838;5.838;2023-07-13T06:02:17;15.30;;;6.57;;
21305;SDS011;10812;51.838;5.838;2023-07-13T06:04:45;11.95;;;6.78;;
21305;SDS011;10812;51.838;5.838;2023-07-13T06:07:17;14.38;;;6.82;;
21305;SDS011;10812;51.838;5.838;2023-07-13T06:09:45;15.65;;;6.72;;
21305;SDS011;10812;51.838;5.838;2023-07-13T06:12:13;17.08;;;7.40;;
21305;SDS011;10812;51.838;5.838;2023-07-13T06:14:42;12.80;;;6.65;;
21305;SDS011;10812;51.838;5.838;2023-07-13T06:17:10;17.02;;;7.90;;
21305;SDS011;10812;51.838;5.838;2023-07-13T06:19:38;16.48;;;7.88;;
21305;SDS011;10812;51.838;5.838;2023-07-13T06:22:06;12.40;;;7.38;;
21305;SDS011;10812;51.838;5.838;2023-07-13T06:24:36;14.80;;;7.75;;
21305;SDS011;10812;51.838;5.838;2023-07-13T06:27:05;16.80;;;7.65;;
21305;SDS011;10812;51.838;5.838;2023-07-13T06:29:33;14.70;;;7.50;;
21305;SDS011;10812;51.838;5.838;2023-07-13T06:32:02;16.17;;;8.82;;
21305;SDS011;10812;51.838;5.838;2023-07-13T06:34:30;15.93;;;8.70;;
21305;SDS011;10812;51.838;5.838;2023-07-13T06:36:58;17.50;;;7.70;;
21305;SDS011;10812;51.838;5.838;2023-07-13T06:39:27;17.88;;;8.00;;
21305;SDS011;10812;51.838;5.838;2023-07-13T06:41:56;11.45;;;6.88;;
21305;SDS011;10812;51.838;5.838;2023-07-13T06:44:24;13.43;;;8.38;;
21305;SDS011;10812;51.838;5.838;2023-07-13T06:46:53;19.65;;;8.98;;
21305;SDS011;10812;51.838;5.838;2023-07-13T06:49:21;13.15;;;8.77;;
21305;SDS011;10812;51.838;5.838;2023-07-13T06:51:49;19.25;;;8.98;;
21305;SDS011;10812;51.838;5.838;2023-07-13T06:54:17;16.90;;;8.90;;
21305;SDS011;10812;51.838;5.838;2023-07-13T06:56:46;13.40;;;8.63;;
21305;SDS011;10812;51.838;5.838;2023-07-13T06:59:15;17.70;;;8.73;;
21305;SDS011;10812;51.838;5.838;2023-07-13T07:01:43;15.73;;;8.32;;
21305;SDS011;10812;51.838;5.838;2023-07-13T07:04:12;12.50;;;7.13;;
21305;SDS011;10812;51.838;5.838;2023-07-13T07:06:40;15.77;;;8.35;;
21305;SDS011;10812;51.838;5.838;2023-07-13T07:09:08;11.65;;;7.53;;
21305;SDS011;10812;51.838;5.838;2023-07-13T07:11:36;14.10;;;8.00;;
21305;SDS011;10812;51.838;5.838;2023-07-13T07:14:26;15.52;;;8.80;;
21305;SDS011;10812;51.838;5.838;2023-07-13T07:16:54;16.17;;;8.95;;
21305;SDS011;10812;51.838;5.838;2023-07-13T07:19:22;15.07;;;8.20;;
21305;SDS011;10812;51.838;5.838;2023-07-13T07:21:50;14.35;;;8.35;;
21305;SDS011;10812;51.838;5.838;2023-07-13T07:24:19;17.13;;;8.10;;
21305;SDS011;10812;51.838;5.838;2023-07-13T07:26:47;12.25;;;7.60;;
21305;SDS011;10812;51.838;5.838;2023-07-13T07:29:18;13.55;;;7.68;;
21305;SDS011;10812;51.838;5.838;2023-07-13T07:31:50;11.80;;;7.35;;
21305;SDS011;10812;51.838;5.838;2023-07-13T07:34:21;12.73;;;7.20;;
21305;SDS011;10812;51.838;5.838;2023-07-13T07:36:50;14.43;;;6.78;;
21305;SDS011;10812;51.838;5.838;2023-07-13T07:39:21;16.27;;;9.30;;
21305;SDS011;10812;51.838;5.838;2023-07-13T07:41:49;14.32;;;7.93;;
21305;SDS011;10812;51.838;5.838;2023-07-13T07:44:22;13.95;;;6.88;;
21305;SDS011;10812;51.838;5.838;2023-07-13T07:46:52;14.85;;;8.05;;
21305;SDS011;10812;51.838;5.838;2023-07-13T07:49:21;11.93;;;8.43;;
21305;SDS011;10812;51.838;5.838;2023-07-13T07:51:49;15.60;;;8.00;;
21305;SDS011;10812;51.838;5.838;2023-07-13T07:54:18;14.32;;;8.40;;
21305;SDS011;10812;51.838;5.838;2023-07-13T07:57:06;16.98;;;9.10;;
21305;SDS011;10812;51.838;5.838;2023-07-13T07:59:38;14.55;;;8.30;;
21305;SDS011;10812;51.838;5.838;2023-07-13T08:02:11;15.52;;;7.53;;
21305;SDS011;10812;51.838;5.838;2023-07-13T08:04:59;16.85;;;8.52;;
21305;SDS011;10812;51.838;5.838;2023-07-13T08:07:30;13.18;;;7.63;;
21305;SDS011;10812;51.838;5.838;2023-07-13T08:09:59;13.45;;;7.35;;
21305;SDS011;10812;51.838;5.838;2023-07-13T08:12:27;11.10;;;7.90;;
21305;SDS011;10812;51.838;5.838;2023-07-13T08:14:58;13.23;;;8.52;;
21305;SDS011;10812;51.838;5.838;2023-07-13T08:17:28;13.18;;;7.28;;
21305;SDS011;10812;51.838;5.838;2023-07-13T08:19:57;13.18;;;7.50;;
21305;SDS011;10812;51.838;5.838;2023-07-13T08:22:25;11.63;;;6.97;;
21305;SDS011;10812;51.838;5.838;2023-07-13T08:24:54;11.98;;;7.20;;
21305;SDS011;10812;51.838;5.838;2023-07-13T08:27:22;10.93;;;7.13;;
21305;SDS011;10812;51.838;5.838;2023-07-13T08:29:52;12.60;;;6.65;;
21305;SDS011;10812;51.838;5.838;2023-07-13T08:32:21;12.25;;;6.88;;
21305;SDS011;10812;51.838;5.838;2023-07-13T08:34:51;10.55;;;6.95;;
21305;SDS011;10812;51.838;5.838;2023-07-13T08:37:20;12.73;;;5.85;;
21305;SDS011;10812;51.838;5.838;2023-07-13T08:39:48;9.70;;;6.53;;
21305;SDS011;10812;51.838;5.838;2023-07-13T08:42:20;10.32;;;6.60;;
21305;SDS011;10812;51.838;5.838;2023-07-13T08:44:57;11.85;;;6.55;;
21305;SDS011;10812;51.838;5.838;2023-07-13T08:47:35;8.90;;;6.10;;
21305;SDS011;10812;51.838;5.838;2023-07-13T08:50:10;10.68;;;6.43;;
21305;SDS011;10812;51.838;5.838;2023-07-13T08:52:41;9.57;;;6.53;;
21305;SDS011;10812;51.838;5.838;2023-07-13T08:55:12;13.38;;;6.97;;
21305;SDS011;10812;51.838;5.838;2023-07-13T08:57:43;8.02;;;5.40;;
21305;SDS011;10812;51.838;5.838;2023-07-13T09:00:16;10.00;;;5.60;;
21305;SDS011;10812;51.838;5.838;2023-07-13T09:02:45;6.78;;;4.63;;
21305;SDS011;10812;51.838;5.838;2023-07-13T09:05:22;7.60;;;5.22;;
21305;SDS011;10812;51.838;5.838;2023-07-13T09:08:01;5.80;;;4.90;;
21305;SDS011;10812;51.838;5.838;2023-07-13T09:10:43;10.10;;;5.43;;
21305;SDS011;10812;51.838;5.838;2023-07-13T09:13:17;8.15;;;4.60;;
21305;SDS011;10812;51.838;5.838;2023-07-13T09:15:54;6.30;;;5.07;;
21305;SDS011;10812;51.838;5.838;2023-07-13T09:18:25;10.50;;;5.25;;
21305;SDS011;10812;51.838;5.838;2023-07-13T09:20:57;7.40;;;5.03;;
21305;SDS011;10812;51.838;5.838;2023-07-13T09:23:30;8.10;;;5.00;;
21305;SDS011;10812;51.838;5.838;2023-07-13T09:26:00;6.95;;;4.63;;
21305;SDS011;10812;51.838;5.838;2023-07-13T09:28:34;8.35;;;4.15;;
21305;SDS011;10812;51.838;5.838;2023-07-13T09:31:07;5.00;;;3.95;;
21305;SDS011;10812;51.838;5.838;2023-07-13T09:33:40;8.77;;;4.63;;
21305;SDS011;10812;51.838;5.838;2023-07-13T09:36:16;8.45;;;4.63;;
21305;SDS011;10812;51.838;5.838;2023-07-13T09:38:47;7.57;;;4.82;;
21305;SDS011;10812;51.838;5.838;2023-07-13T09:41:19;7.97;;;4.55;;
21305;SDS011;10812;51.838;5.838;2023-07-13T09:44:09;7.63;;;5.20;;
21305;SDS011;10812;51.838;5.838;2023-07-13T09:46:39;11.05;;;6.82;;
21305;SDS011;10812;51.838;5.838;2023-07-13T09:49:13;10.57;;;6.90;;
21305;SDS011;10812;51.838;5.838;2023-07-13T09:51:42;9.23;;;7.40;;
21305;SDS011;10812;51.838;5.838;2023-07-13T09:54:19;10.45;;;7.63;;
21305;SDS011;10812;51.838;5.838;2023-07-13T09:56:53;10.00;;;7.07;;
21305;SDS011;10812;51.838;5.838;2023-07-13T09:59:24;12.40;;;7.55;;
21305;SDS011;10812;51.838;5.838;2023-07-13T10:01:56;9.05;;;6.93;;
21305;SDS011;10812;51.838;5.838;2023-07-13T10:04:28;9.88;;;7.13;;
21305;SDS011;10812;51.838;5.838;2023-07-13T10:07:06;12.48;;;7.07;;
21305;SDS011;10812;51.838;5.838;2023-07-13T10:09:54;12.98;;;7.30;;
21305;SDS011;10812;51.838;5.838;2023-07-13T10:12:22;10.25;;;7.72;;
21305;SDS011;10812;51.838;5.838;2023-07-13T10:14:52;14.27;;;8.82;;
21305;SDS011;10812;51.838;5.838;2023-07-13T10:17:42;12.68;;;8.52;;
21305;SDS011;10812;51.838;5.838;2023-07-13T10:20:11;12.27;;;8.88;;
21305;SDS011;10812;51.838;5.838;2023-07-13T10:22:43;16.88;;;8.88;;
21305;SDS011;10812;51.838;5.838;2023-07-13T10:25:15;13.35;;;8.98;;
21305;SDS011;10812;51.838;5.838;2023-07-13T10:27:45;11.00;;;7.43;;
21305;SDS011;10812;51.838;5.838;2023-07-13T10:30:17;11.95;;;7.60;;
21305;SDS011;10812;51.838;5.838;2023-07-13T10:32:49;11.23;;;7.90;;
21305;SDS011;10812;51.838;5.838;2023-07-13T10:35:19;8.73;;;6.93;;
21305;SDS011;10812;51.838;5.838;2023-07-13T10:37:52;9.82;;;7.03;;
21305;SDS011;10812;51.838;5.838;2023-07-13T10:40:27;9.60;;;5.95;;
21305;SDS011;10812;51.838;5.838;2023-07-13T10:43:02;7.35;;;6.60;;
21305;SDS011;10812;51.838;5.838;2023-07-13T10:45:39;10.68;;;7.28;;
21305;SDS011;10812;51.838;5.838;2023-07-13T10:48:09;9.93;;;7.53;;
21305;SDS011;10812;51.838;5.838;2023-07-13T10:50:43;10.95;;;7.32;;
21305;SDS011;10812;51.838;5.838;2023-07-13T10:53:19;10.73;;;6.60;;
21305;SDS011;10812;51.838;5.838;2023-07-13T10:55:55;11.10;;;6.78;;
21305;SDS011;10812;51.838;5.838;2023-07-13T10:58:31;8.82;;;6.78;;
21305;SDS011;10812;51.838;5.838;2023-07-13T11:01:03;9.88;;;6.25;;
21305;SDS011;10812;51.838;5.838;2023-07-13T11:03:37;11.38;;;6.93;;
21305;SDS011;10812;51.838;5.838;2023-07-13T11:06:21;8.40;;;5.90;;
21305;SDS011;10812;51.838;5.838;2023-07-13T11:09:17;5.45;;;4.13;;
21305;SDS011;10812;51.838;5.838;2023-07-13T11:11:58;4.82;;;3.70;;
21305;SDS011;10812;51.838;5.838;2023-07-13T11:14:29;7.57;;;3.97;;
21305;SDS011;10812;51.838;5.838;2023-07-13T11:17:23;4.85;;;3.58;;
21305;SDS011;10812;51.838;5.838;2023-07-13T11:22:52;4.03;;;2.88;;
21305;SDS011;10812;51.838;5.838;2023-07-13T11:25:36;4.47;;;3.42;;
21305;SDS011;10812;51.838;5.838;2023-07-13T11:28:06;3.33;;;3.03;;
21305;SDS011;10812;51.838;5.838;2023-07-13T11:30:43;5.03;;;3.70;;
21305;SDS011;10812;51.838;5.838;2023-07-13T11:33:16;5.32;;;3.28;;
21305;SDS011;10812;51.838;5.838;2023-07-13T11:35:57;5.70;;;3.35;;
21305;SDS011;10812;51.838;5.838;2023-07-13T11:38:28;4.97;;;3.35;;
21305;SDS011;10812;51.838;5.838;2023-07-13T11:41:03;2.63;;;2.22;;
21305;SDS011;10812;51.838;5.838;2023-07-13T11:43:34;4.05;;;2.65;;
21305;SDS011;10812;51.838;5.838;2023-07-13T11:46:12;2.88;;;1.98;;
21305;SDS011;10812;51.838;5.838;2023-07-13T11:48:41;3.78;;;2.00;;
21305;SDS011;10812;51.838;5.838;2023-07-13T11:51:14;3.05;;;1.80;;
21305;SDS011;10812;51.838;5.838;2023-07-13T11:53:48;3.92;;;2.20;;
21305;SDS011;10812;51.838;5.838;2023-07-13T11:56:23;3.50;;;1.95;;
21305;SDS011;10812;51.838;5.838;2023-07-13T11:58:53;2.95;;;1.85;;
21305;SDS011;10812;51.838;5.838;2023-07-13T12:01:25;3.45;;;2.20;;
21305;SDS011;10812;51.838;5.838;2023-07-13T12:06:29;5.22;;;2.20;;
21305;SDS011;10812;51.838;5.838;2023-07-13T12:09:00;5.15;;;2.75;;
21305;SDS011;10812;51.838;5.838;2023-07-13T12:11:34;5.75;;;2.60;;
21305;SDS011;10812;51.838;5.838;2023-07-13T12:14:12;4.93;;;2.40;;
21305;SDS011;10812;51.838;5.838;2023-07-13T12:16:42;3.35;;;2.17;;
21305;SDS011;10812;51.838;5.838;2023-07-13T12:19:14;5.03;;;2.70;;
21305;SDS011;10812;51.838;5.838;2023-07-13T12:21:45;4.43;;;2.53;;
21305;SDS011;10812;51.838;5.838;2023-07-13T12:24:14;6.72;;;2.95;;
21305;SDS011;10812;51.838;5.838;2023-07-13T12:26:49;5.97;;;3.22;;
21305;SDS011;10812;51.838;5.838;2023-07-13T12:29:18;4.95;;;2.90;;
21305;SDS011;10812;51.838;5.838;2023-07-13T12:31:47;5.57;;;2.78;;
21305;SDS011;10812;51.838;5.838;2023-07-13T12:34:17;4.20;;;3.10;;
21305;SDS011;10812;51.838;5.838;2023-07-13T12:36:47;4.55;;;3.38;;
21305;SDS011;10812;51.838;5.838;2023-07-13T12:39:17;5.32;;;3.35;;
21305;SDS011;10812;51.838;5.838;2023-07-13T12:41:49;4.88;;;3.80;;
21305;SDS011;10812;51.838;5.838;2023-07-13T12:44:21;5.65;;;3.67;;
21305;SDS011;10812;51.838;5.838;2023-07-13T12:46:54;6.63;;;3.75;;
21305;SDS011;10812;51.838;5.838;2023-07-13T12:49:27;6.55;;;3.75;;
21305;SDS011;10812;51.838;5.838;2023-07-13T12:51:57;4.95;;;3.33;;
21305;SDS011;10812;51.838;5.838;2023-07-13T12:54:27;4.60;;;3.13;;
21305;SDS011;10812;51.838;5.838;2023-07-13T12:56:58;5.07;;;2.75;;
21305;SDS011;10812;51.838;5.838;2023-07-13T12:59:30;4.93;;;2.85;;
21305;SDS011;10812;51.838;5.838;2023-07-13T13:02:05;2.97;;;1.92;;
21305;SDS011;10812;51.838;5.838;2023-07-13T13:04:54;3.15;;;1.70;;
21305;SDS011;10812;51.838;5.838;2023-07-13T13:07:23;2.20;;;1.60;;
21305;SDS011;10812;51.838;5.838;2023-07-13T13:09:52;3.10;;;1.77;;
21305;SDS011;10812;51.838;5.838;2023-07-13T13:12:22;2.08;;;1.40;;
21305;SDS011;10812;51.838;5.838;2023-07-13T13:14:53;3.63;;;1.35;;
21305;SDS011;10812;51.838;5.838;2023-07-13T13:17:22;2.50;;;1.75;;
21305;SDS011;10812;51.838;5.838;2023-07-13T13:19:53;3.53;;;1.80;;
21305;SDS011;10812;51.838;5.838;2023-07-13T13:22:22;2.00;;;1.63;;
21305;SDS011;10812;51.838;5.838;2023-07-13T13:24:51;3.03;;;1.70;;
21305;SDS011;10812;51.838;5.838;2023-07-13T13:27:19;4.68;;;1.58;;
21305;SDS011;10812;51.838;5.838;2023-07-13T13:29:51;1.77;;;1.48;;
21305;SDS011;10812;51.838;5.838;2023-07-13T13:32:20;3.70;;;1.60;;
21305;SDS011;10812;51.838;5.838;2023-07-13T13:34:48;5.95;;;1.58;;
21305;SDS011;10812;51.838;5.838;2023-07-13T13:37:18;2.78;;;1.58;;
21305;SDS011;10812;51.838;5.838;2023-07-13T13:39:48;3.22;;;1.40;;
21305;SDS011;10812;51.838;5.838;2023-07-13T13:42:34;3.53;;;1.50;;
21305;SDS011;10812;51.838;5.838;2023-07-13T13:45:04;2.75;;;1.50;;
21305;SDS011;10812;51.838;5.838;2023-07-13T13:47:34;2.70;;;1.48;;
21305;SDS011;10812;51.838;5.838;2023-07-13T13:50:10;3.30;;;1.52;;
21305;SDS011;10812;51.838;5.838;2023-07-13T13:52:41;2.25;;;1.50;;
21305;SDS011;10812;51.838;5.838;2023-07-13T13:55:13;3.05;;;1.42;;
21305;SDS011;10812;51.838;5.838;2023-07-13T13:57:42;5.03;;;2.13;;
21305;SDS011;10812;51.838;5.838;2023-07-13T14:00:12;3.42;;;1.80;;
21305;SDS011;10812;51.838;5.838;2023-07-13T14:02:44;3.10;;;1.73;;
21305;SDS011;10812;51.838;5.838;2023-07-13T14:05:14;3.03;;;1.80;;
21305;SDS011;10812;51.838;5.838;2023-07-13T14:07:46;4.68;;;2.22;;
21305;SDS011;10812;51.838;5.838;2023-07-13T14:10:15;5.18;;;1.88;;
21305;SDS011;10812;51.838;5.838;2023-07-13T14:12:45;3.20;;;1.65;;
21305;SDS011;10812;51.838;5.838;2023-07-13T14:15:17;2.58;;;1.30;;
21305;SDS011;10812;51.838;5.838;2023-07-13T14:17:49;2.97;;;1.65;;
21305;SDS011;10812;51.838;5.838;2023-07-13T14:20:18;3.15;;;1.45;;
21305;SDS011;10812;51.838;5.838;2023-07-13T14:22:48;2.95;;;1.75;;
21305;SDS011;10812;51.838;5.838;2023-07-13T14:25:17;2.33;;;1.60;;
21305;SDS011;10812;51.838;5.838;2023-07-13T14:27:48;3.10;;;1.30;;
21305;SDS011;10812;51.838;5.838;2023-07-13T14:30:21;3.80;;;1.50;;
21305;SDS011;10812;51.838;5.838;2023-07-13T14:32:50;2.65;;;1.70;;
21305;SDS011;10812;51.838;5.838;2023-07-13T14:35:20;4.65;;;1.83;;
21305;SDS011;10812;51.838;5.838;2023-07-13T14:37:50;2.83;;;1.75;;
21305;SDS011;10812;51.838;5.838;2023-07-13T14:40:19;2.92;;;1.80;;
21305;SDS011;10812;51.838;5.838;2023-07-13T14:42:52;2.03;;;1.30;;
21305;SDS011;10812;51.838;5.838;2023-07-13T14:45:22;2.17;;;1.30;;
21305;SDS011;10812;51.838;5.838;2023-07-13T14:47:51;2.05;;;1.50;;
21305;SDS011;10812;51.838;5.838;2023-07-13T14:50:20;3.83;;;1.48;;
21305;SDS011;10812;51.838;5.838;2023-07-13T14:52:52;4.93;;;1.52;;
21305;SDS011;10812;51.838;5.838;2023-07-13T14:55:20;2.85;;;1.52;;
21305;SDS011;10812;51.838;5.838;2023-07-13T14:57:48;3.20;;;1.88;;
21305;SDS011;10812;51.838;5.838;2023-07-13T15:00:18;2.88;;;1.92;;
21305;SDS011;10812;51.838;5.838;2023-07-13T15:02:49;2.00;;;1.20;;
21305;SDS011;10812;51.838;5.838;2023-07-13T15:05:21;2.35;;;1.65;;
21305;SDS011;10812;51.838;5.838;2023-07-13T15:07:52;4.55;;;1.45;;
21305;SDS011;10812;51.838;5.838;2023-07-13T15:10:22;2.33;;;1.30;;
21305;SDS011;10812;51.838;5.838;2023-07-13T15:12:52;2.90;;;1.55;;
21305;SDS011;10812;51.838;5.838;2023-07-13T15:15:20;5.13;;;1.52;;
21305;SDS011;10812;51.838;5.838;2023-07-13T15:17:50;3.40;;;1.33;;
21305;SDS011;10812;51.838;5.838;2023-07-13T15:20:19;3.83;;;1.58;;
21305;SDS011;10812;51.838;5.838;2023-07-13T15:22:52;3.50;;;1.60;;
21305;SDS011;10812;51.838;5.838;2023-07-13T15:25:21;2.38;;;1.70;;
21305;SDS011;10812;51.838;5.838;2023-07-13T15:27:51;2.35;;;1.13;;
21305;SDS011;10812;51.838;5.838;2023-07-13T15:30:19;3.15;;;1.90;;
21305;SDS011;10812;51.838;5.838;2023-07-13T15:32:49;4.53;;;2.17;;
21305;SDS011;10812;51.838;5.838;2023-07-13T15:35:18;3.25;;;1.92;;
21305;SDS011;10812;51.838;5.838;2023-07-13T15:37:48;5.57;;;1.80;;